createdAt,value
2017-01-05T15:40:09.273Z,16.61
2017-01-05T15:41:21.475Z,18.91
2017-01-05T15:42:32.523Z,20.98
2017-01-05T15:43:43.580Z,22.96
2017-01-05T15:44:54.000Z,25.4
2017-01-05T15:46:04.851Z,27.57
2017-01-05T15:47:16.147Z,28.89
2017-01-05T15:48:25.959Z,31.25
2017-01-05T15:49:01.499Z,31.98
2017-01-05T15:50:12.956Z,34.16
2017-01-05T15:51:24.323Z,35.57
2017-01-05T15:52:34.741Z,36.99
2017-01-05T15:53:46.129Z,38.29
2017-01-05T15:54:57.825Z,39.43
2017-01-05T15:56:09.431Z,40.45
2017-01-05T15:57:21.032Z,41.4
2017-01-05T15:58:32.713Z,41.59
2017-01-05T15:59:44.400Z,42.61
2017-01-05T16:00:55.769Z,43.18
2017-01-05T16:02:05.863Z,44.41
2017-01-05T16:03:17.225Z,44.89
2017-01-05T16:04:29.537Z,44.58
2017-01-05T16:05:40.916Z,46
2017-01-05T16:06:51.574Z,46.28
2017-01-05T16:08:03.906Z,47.32
2017-01-05T16:09:15.598Z,47.89
2017-01-05T16:10:26.642Z,48.46
2017-01-05T16:11:37.384Z,48.93
2017-01-05T16:12:48.441Z,48.46
2017-01-05T16:13:59.413Z,48.84
2017-01-05T16:15:11.421Z,49.38
2017-01-05T16:16:21.767Z,49.6
2017-01-05T16:17:33.102Z,49.57
2017-01-05T16:18:44.479Z,49.48
2017-01-05T16:19:56.495Z,50.23
2017-01-05T16:21:08.199Z,50.52
2017-01-05T16:22:20.202Z,51.18
2017-01-05T16:23:31.894Z,51.28
2017-01-05T16:24:43.257Z,50.99
2017-01-05T16:25:54.552Z,51.56
2017-01-05T16:27:05.849Z,50.71
2017-01-05T16:28:17.237Z,51.18
2017-01-05T16:29:28.917Z,51.46
2017-01-05T16:30:41.231Z,52.12
2017-01-05T16:31:51.957Z,52.31
2017-01-05T16:33:03.331Z,52.31
2017-01-05T16:34:13.600Z,52.31
2017-01-05T16:35:23.590Z,52.03
2017-01-05T16:36:35.567Z,52.12
2017-01-05T16:37:46.239Z,52.31
2017-01-05T16:38:57.325Z,52.88
2017-01-05T16:40:08.614Z,53.07
2017-01-05T16:41:18.561Z,52.69
2017-01-05T16:42:29.853Z,52.6
2017-01-05T16:43:41.239Z,53.07
2017-01-05T16:44:51.583Z,52.88
2017-01-05T16:46:02.961Z,52.98
2017-01-05T16:47:13.693Z,53.07
2017-01-05T16:48:23.652Z,53.36
2017-01-05T16:49:34.310Z,54.49
2017-01-05T16:50:46.004Z,54.68
2017-01-05T16:51:57.058Z,53.64
2017-01-05T16:53:06.844Z,53.26
2017-01-05T16:54:16.785Z,53.36
2017-01-05T16:55:27.440Z,53.26
2017-01-05T16:56:39.115Z,53.74
2017-01-05T16:57:49.945Z,53.83
2017-01-05T16:59:01.334Z,53.92
2017-01-05T17:00:13.337Z,53.83
2017-01-05T17:01:25.351Z,52.6
2017-01-05T17:02:37.038Z,52.69
2017-01-05T17:03:48.111Z,52.12
2017-01-05T17:04:59.410Z,52.22
2017-01-05T17:06:10.949Z,51.75
2017-01-05T17:07:22.957Z,51.37
2017-01-05T17:08:34.015Z,52.22
2017-01-05T17:09:44.653Z,52.79
2017-01-05T17:10:55.722Z,53.26
2017-01-05T17:12:06.788Z,52.69
2017-01-05T17:13:17.849Z,52.22
2017-01-05T17:14:28.584Z,52.19
2017-01-05T17:15:39.569Z,52.38
2017-01-05T17:16:50.614Z,52.19
2017-01-05T17:18:02.622Z,52.57
2017-01-05T17:19:13.982Z,53.05
2017-01-05T17:20:23.693Z,52.86
2017-01-05T17:21:35.064Z,52.95
2017-01-05T17:22:46.843Z,53.33
2017-01-05T17:23:57.885Z,53.52
2017-01-05T17:25:08.546Z,53.89
2017-01-05T17:26:20.224Z,53.89
2017-01-05T17:27:31.222Z,53.8
2017-01-05T17:28:42.909Z,53.23
2017-01-05T17:29:53.958Z,53.33
2017-01-05T17:31:05.336Z,52.95
2017-01-05T17:32:16.793Z,53.05
2017-01-05T17:33:28.164Z,52.95
2017-01-05T17:34:38.438Z,53.89
2017-01-05T17:35:50.762Z,53.8
2017-01-05T17:37:00.946Z,53.8
2017-01-05T17:38:11.998Z,53.33
2017-01-05T17:39:23.105Z,52.76
2017-01-05T17:40:33.760Z,52.95
2017-01-05T17:41:43.461Z,52.95
2017-01-05T17:42:55.468Z,52.95
2017-01-05T17:44:07.160Z,53.33
2017-01-05T17:45:18.695Z,53.05
2017-01-05T17:46:29.365Z,52.76
2017-01-05T17:47:40.745Z,52.48
2017-01-05T17:48:51.084Z,52.38
2017-01-05T17:50:02.763Z,52.48
2017-01-05T17:51:13.745Z,53.05
2017-01-05T17:52:25.746Z,52.86
2017-01-05T17:53:36.728Z,52.76
2017-01-05T17:54:47.789Z,53.23
2017-01-05T17:55:59.477Z,52.76
2017-01-05T17:57:10.693Z,52.1
2017-01-05T17:58:20.949Z,51.81
2017-01-05T17:59:31.697Z,52.57
2017-01-05T18:00:42.925Z,53.05
2017-01-05T18:01:53.981Z,52.95
2017-01-05T18:03:05.353Z,52.95
2017-01-05T18:04:16.394Z,52.29
2017-01-05T18:05:28.093Z,52.48
2017-01-05T18:06:39.079Z,51.91
2017-01-05T18:07:51.390Z,51.91
2017-01-05T18:09:02.692Z,51.91
2017-01-05T18:10:13.988Z,51.91
2017-01-05T18:11:25.758Z,52.48
2017-01-05T18:12:37.761Z,52.95
2017-01-05T18:13:48.343Z,53.89
2017-01-05T18:14:59.714Z,53.89
2017-01-05T18:16:10.442Z,53.33
2017-01-05T18:17:22.132Z,53.8
2017-01-05T18:18:33.190Z,53.89
2017-01-05T18:19:43.533Z,53.89
2017-01-05T18:20:55.139Z,54.18
2017-01-05T18:22:05.161Z,53.8
2017-01-05T18:23:15.036Z,52.95
2017-01-05T18:24:25.697Z,53.05
2017-01-05T18:25:36.683Z,53.8
2017-01-05T18:26:48.052Z,53.05
2017-01-05T18:27:58.408Z,52.67
2017-01-05T18:29:09.461Z,52.1
2017-01-05T18:30:19.488Z,53.05
2017-01-05T18:31:31.169Z,53.33
2017-01-05T18:32:42.568Z,53.23
2017-01-05T18:33:53.957Z,53.7
2017-01-05T18:35:04.382Z,53.99
2017-01-05T18:36:15.370Z,53.8
2017-01-05T18:37:27.067Z,53.7
2017-01-05T18:38:38.148Z,53.89
2017-01-05T18:39:48.882Z,53.8
2017-01-05T18:40:59.881Z,53.7
2017-01-05T18:42:09.506Z,53.8
2017-01-05T18:43:20.260Z,53.99
2017-01-05T18:44:30.680Z,53.7
2017-01-05T18:45:42.149Z,53.7
2017-01-05T18:46:53.532Z,53.33
2017-01-05T18:48:05.256Z,53.8
2017-01-05T18:49:16.792Z,53.8
2017-01-05T18:50:28.173Z,54.55
2017-01-05T18:51:39.170Z,55.12
2017-01-05T18:52:49.534Z,55.12
2017-01-05T18:53:59.869Z,55.22
2017-01-05T18:55:10.295Z,55.6
2017-01-05T18:56:22.628Z,55.5
2017-01-05T18:57:33.690Z,55.41
2017-01-05T18:58:43.802Z,55.22
2017-01-05T18:59:54.543Z,55.41
2017-01-05T19:01:06.221Z,55.41
2017-01-05T19:02:17.285Z,55.41
2017-01-05T19:03:27.257Z,55.22
2017-01-05T19:04:39.261Z,55.6
2017-01-05T19:05:50.080Z,55.69
2017-01-05T19:07:01.243Z,55.79
2017-01-05T19:08:12.303Z,56.26
2017-01-05T19:09:23.273Z,56.54
2017-01-05T19:10:34.237Z,56.73
2017-01-05T19:11:45.300Z,56.73
2017-01-05T19:12:56.264Z,56.35
2017-01-05T19:14:07.964Z,56.73
2017-01-05T19:15:20.289Z,56.54
2017-01-05T19:16:32.301Z,57.3
2017-01-05T19:17:42.576Z,56.54
2017-01-05T19:18:53.161Z,56.45
2017-01-05T19:20:04.216Z,55.38
2017-01-05T19:21:15.507Z,55.38
2017-01-05T19:22:26.829Z,55.5
2017-01-05T19:23:38.201Z,56.23
2017-01-05T19:24:48.076Z,56.32
2017-01-05T19:25:58.102Z,56.54
2017-01-05T19:27:08.776Z,56.32
2017-01-05T19:28:20.038Z,56.51
2017-01-05T19:29:31.402Z,56.51
2017-01-05T19:30:42.397Z,55.85
2017-01-05T19:31:52.556Z,56.23
2017-01-05T19:33:03.602Z,56.42
2017-01-05T19:34:14.350Z,56.8
2017-01-05T19:35:24.587Z,56.51
2017-01-05T19:36:35.653Z,56.42
2017-01-05T19:37:47.942Z,56.8
2017-01-05T19:39:00.395Z,56.8
2017-01-05T19:40:10.847Z,56.23
2017-01-05T19:41:21.891Z,56.32
2017-01-05T19:42:33.215Z,56.51
2017-01-05T19:43:44.326Z,57.27
2017-01-05T19:44:55.845Z,56.7
2017-01-05T19:46:05.948Z,56.99
2017-01-05T19:47:16.389Z,57.18
2017-01-05T19:48:27.949Z,56.51
2017-01-05T19:49:39.972Z,56.8
2017-01-05T19:50:50.857Z,56.99
2017-01-05T19:52:03.028Z,56.89
2017-01-05T19:53:14.275Z,57.08
2017-01-05T19:54:25.257Z,57.46
2017-01-05T19:55:36.202Z,57.74
2017-01-05T19:56:48.184Z,58.03
2017-01-05T19:57:59.316Z,57.93
2017-01-05T19:59:10.649Z,57.46
2017-01-05T20:00:20.426Z,57.27
2017-01-05T20:01:32.133Z,57.55
2017-01-05T20:02:42.300Z,57.37
2017-01-05T20:03:52.935Z,57.93
2017-01-05T20:05:03.046Z,57.65
2017-01-05T20:06:14.540Z,57.84
2017-01-05T20:07:25.913Z,57.93
2017-01-05T20:08:37.686Z,57.46
2017-01-05T20:09:49.154Z,57.46
2017-01-05T20:11:00.554Z,57.18
2017-01-05T20:12:12.876Z,57.27
2017-01-05T20:13:24.898Z,57.55
2017-01-05T20:14:36.077Z,58.59
2017-01-05T20:15:48.021Z,58.31
2017-01-05T20:16:59.069Z,58.59
2017-01-05T20:18:10.056Z,58.5
2017-01-05T20:19:21.542Z,58.5
2017-01-05T20:20:33.636Z,57.93
2017-01-05T20:21:43.587Z,57.74
2017-01-05T20:22:54.604Z,57.46
2017-01-05T20:24:05.899Z,57.65
2017-01-05T20:25:18.085Z,58.12
2017-01-05T20:26:29.525Z,57.55
2017-01-05T20:27:40.983Z,57.74
2017-01-05T20:28:52.193Z,58.03
2017-01-05T20:30:03.248Z,58.4
2017-01-05T20:31:14.822Z,58.31
2017-01-05T20:32:26.806Z,58.59
2017-01-05T20:33:37.133Z,58.22
2017-01-05T20:34:48.714Z,58.4
2017-01-05T20:35:59.513Z,57.55
2017-01-05T20:37:10.777Z,58.03
2017-01-05T20:38:22.958Z,57.74
2017-01-05T20:39:34.498Z,58.31
2017-01-05T20:40:45.560Z,58.22
2017-01-05T20:41:57.719Z,58.31
2017-01-05T20:43:09.870Z,58.22
2017-01-05T20:44:21.015Z,58.4
2017-01-05T20:45:31.284Z,58.59
2017-01-05T20:46:42.608Z,58.97
2017-01-05T20:47:53.390Z,58.97
2017-01-05T20:49:04.783Z,59.06
2017-01-05T20:50:17.117Z,59.35
2017-01-05T20:51:29.910Z,59.35
2017-01-05T20:52:41.912Z,59.06
2017-01-05T20:53:53.918Z,59.25
2017-01-05T20:55:05.092Z,59.06
2017-01-05T20:56:17.090Z,58.97
2017-01-05T20:57:29.403Z,59.63
2017-01-05T20:58:41.249Z,59.54
2017-01-05T20:59:53.384Z,59.35
2017-01-05T21:01:04.561Z,58.97
2017-01-05T21:02:15.959Z,58.97
2017-01-05T21:03:27.995Z,59.25
2017-01-05T21:04:39.690Z,58.97
2017-01-05T21:05:51.749Z,58.97
2017-01-05T21:07:02.858Z,58.87
2017-01-05T21:08:15.625Z,59.25
2017-01-05T21:09:26.398Z,59.25
2017-01-05T21:10:38.138Z,59.16
2017-01-05T21:11:49.288Z,59.44
2017-01-05T21:13:00.669Z,59.44
2017-01-05T21:14:11.817Z,59.82
2017-01-05T21:15:23.192Z,60.01
2017-01-05T21:16:35.217Z,60.01
2017-01-05T21:17:47.541Z,60.01
2017-01-05T21:18:58.588Z,59.73
2017-01-05T21:20:09.064Z,59.73
2017-01-05T21:21:20.034Z,59.92
2017-01-05T21:22:31.521Z,60.01
2017-01-05T21:23:42.612Z,59.73
2017-01-05T21:24:53.374Z,59.06
2017-01-05T21:26:05.077Z,59.06
2017-01-05T21:27:15.149Z,59.54
2017-01-05T21:28:26.221Z,59.25
2017-01-05T21:29:37.303Z,59.13
2017-01-05T21:30:48.988Z,59.25
2017-01-05T21:31:59.738Z,59.16
2017-01-05T21:33:10.792Z,59.35
2017-01-05T21:34:22.022Z,59.35
2017-01-05T21:35:32.371Z,60.08
2017-01-05T21:36:43.041Z,59.79
2017-01-05T21:37:53.619Z,59.92
2017-01-05T21:39:05.021Z,60.11
2017-01-05T21:40:16.710Z,60.27
2017-01-05T21:41:28.414Z,59.79
2017-01-05T21:42:40.753Z,59.79
2017-01-05T21:43:51.501Z,59.89
2017-01-05T21:45:03.527Z,59.79
2017-01-05T21:46:14.362Z,58.94
2017-01-05T21:47:26.048Z,59.13
2017-01-05T21:48:37.442Z,59.22
2017-01-05T21:49:48.725Z,59.51
2017-01-05T21:50:59.778Z,59.79
2017-01-05T21:52:10.539Z,59.63
2017-01-05T21:53:22.129Z,59.98
2017-01-05T21:54:32.858Z,59.89
2017-01-05T21:55:42.876Z,59.89
2017-01-05T21:56:54.259Z,59.89
2017-01-05T21:58:05.973Z,59.7
2017-01-05T21:59:16.240Z,59.89
2017-01-05T22:00:27.708Z,59.13
2017-01-05T22:01:37.253Z,59.22
2017-01-05T22:02:49.116Z,59.41
2017-01-05T22:03:59.055Z,59.6
2017-01-05T22:05:10.054Z,60.08
2017-01-05T22:06:21.036Z,60.27
2017-01-05T22:07:31.463Z,59.79
2017-01-05T22:08:41.797Z,59.98
2017-01-05T22:09:52.128Z,59.98
2017-01-05T22:11:03.183Z,59.89
2017-01-05T22:12:14.827Z,60.17
2017-01-05T22:13:23.813Z,59.32
2017-01-05T22:14:35.804Z,59.7
2017-01-05T22:15:46.774Z,60.27
2017-01-05T22:16:57.471Z,59.79
2017-01-05T22:18:08.849Z,60.17
2017-01-05T22:19:20.085Z,60.17
2017-01-05T22:20:31.380Z,59.89
2017-01-05T22:21:41.659Z,60.64
2017-01-05T22:22:53.280Z,60.46
2017-01-05T22:24:04.335Z,60.55
2017-01-05T22:25:16.358Z,60.74
2017-01-05T22:26:28.048Z,60.93
2017-01-05T22:27:39.033Z,60.36
2017-01-05T22:28:49.385Z,60.74
2017-01-05T22:30:00.688Z,60.74
2017-01-05T22:31:12.058Z,60.46
2017-01-05T22:32:21.942Z,60.46
2017-01-05T22:33:32.272Z,60.74
2017-01-05T22:34:42.700Z,60.83
2017-01-05T22:35:54.079Z,60.55
2017-01-05T22:37:05.614Z,60.27
2017-01-05T22:38:15.655Z,59.6
2017-01-05T22:39:26.323Z,59.89
2017-01-05T22:40:38.021Z,59.79
2017-01-05T22:41:48.937Z,59.89
2017-01-05T22:42:59.996Z,59.6
2017-01-05T22:44:11.078Z,59.98
2017-01-05T22:45:22.790Z,60.27
2017-01-05T22:46:33.550Z,59.98
2017-01-05T22:47:45.250Z,59.89
2017-01-05T22:48:56.645Z,59.6
2017-01-05T22:50:07.701Z,59.89
2017-01-05T22:51:19.389Z,60.08
2017-01-05T22:52:29.970Z,60.27
2017-01-05T22:53:41.366Z,61.21
2017-01-05T22:54:53.041Z,60.93
2017-01-05T22:56:03.980Z,61.4
2017-01-05T22:57:15.352Z,61.58
2017-01-05T22:58:26.720Z,61.77
2017-01-05T22:59:38.429Z,61.11
2017-01-05T23:00:49.794Z,60.93
2017-01-05T23:02:01.482Z,60.93
2017-01-05T23:03:11.902Z,60.83
2017-01-05T23:04:22.885Z,61.4
2017-01-05T23:05:33.213Z,61.4
2017-01-05T23:06:44.674Z,61.11
2017-01-05T23:07:55.713Z,60.74
2017-01-05T23:09:07.717Z,60.08
2017-01-05T23:10:18.554Z,59.98
2017-01-05T23:11:29.285Z,60.27
2017-01-05T23:12:41.597Z,60.17
2017-01-05T23:13:53.597Z,59.79
2017-01-05T23:15:04.564Z,59.89
2017-01-05T23:16:15.399Z,59.79
2017-01-05T23:17:26.828Z,60.08
2017-01-05T23:18:37.191Z,59.89
2017-01-05T23:19:48.633Z,60.08
2017-01-05T23:20:59.437Z,60.08
2017-01-05T23:22:11.130Z,60.27
2017-01-05T23:23:21.869Z,60.17
2017-01-05T23:24:32.966Z,60.27
2017-01-05T23:25:43.396Z,60.27
2017-01-05T23:26:54.053Z,59.79
2017-01-05T23:28:05.486Z,59.13
2017-01-05T23:29:16.939Z,59.51
2017-01-05T23:30:27.922Z,59.7
2017-01-05T23:31:39.029Z,59.98
2017-01-05T23:32:50.985Z,59.89
2017-01-05T23:34:01.835Z,59.7
2017-01-05T23:35:11.775Z,59.89
2017-01-05T23:36:23.154Z,59.89
2017-01-05T23:37:35.030Z,60.36
2017-01-05T23:38:46.781Z,60.27
2017-01-05T23:39:58.069Z,60.27
2017-01-05T23:41:10.204Z,59.7
2017-01-05T23:42:22.544Z,60.08
2017-01-05T23:43:34.094Z,60.27
2017-01-05T23:44:44.438Z,59.79
2017-01-05T23:45:55.265Z,59.6
2017-01-05T23:47:05.922Z,59.89
2017-01-05T23:48:17.274Z,59.89
2017-01-05T23:49:27.598Z,59.89
2017-01-05T23:50:37.256Z,59.7
2017-01-05T23:51:47.288Z,59.98
2017-01-05T23:52:58.661Z,60.08
2017-01-05T23:54:09.949Z,60.08
2017-01-05T23:55:20.703Z,60.27
2017-01-05T23:56:31.046Z,60.93
2017-01-05T23:57:42.730Z,60.74
2017-01-05T23:58:54.423Z,60.08
